Time;durP1;ratioP1;P1;durP2;ratioP2;P2;SDS_P1;SDS_P2;PMS_P1;PMS_P2;Temp;Humidity;BMP_temperature;BMP_pressure;BME280_temperature;BME280_humidity;BME280_pressure;Samples;Min_cycle;Max_cycle;Signal;HPM_P1;HPM_P2
2022/06/12 00:03:41;;;;;;;;;;;19.10;99.90;;;;;;10289933;28;84129;-47
2022/06/12 00:08:41;;;;;;;;;;;19.10;99.90;;;;;;10289399;28;84099;-48
2022/06/12 00:18:48;;;;;;;;;;;19.10;1.00;;;;;;10245218;28;84164;-48
2022/06/12 00:23:49;;;;;;;;;;;19.10;1.00;;;;;;10248759;28;85106;-47
2022/06/12 00:29:00;;;;;;;;;;;19.10;99.90;;;;;;10192342;28;84250;-49
2022/06/12 00:34:01;;;;;;;;;;;19.00;99.90;;;;;;10227732;28;85684;-48
2022/06/12 00:39:02;;;;;;;;;;;18.90;1.00;;;;;;10247715;28;87118;-48
2022/06/12 00:44:04;;;;;;;;;;;18.80;99.90;;;;;;10246706;28;85340;-48
2022/06/12 00:49:09;;;;;;;;;;;18.80;99.90;;;;;;10248253;28;84040;-53
2022/06/12 00:54:10;;;;;;;;;;;18.70;1.00;;;;;;10249781;28;84123;-52
2022/06/12 00:59:13;;;;;;;;;;;18.70;99.90;;;;;;10249106;28;84746;-51
2022/06/12 01:09:38;;;;;;;;;;;18.70;99.90;;;;;;10233269;28;85168;-46
2022/06/12 01:14:44;;;;;;;;;;;18.50;1.00;;;;;;10243882;28;84071;-49
2022/06/12 01:19:47;;;;;;;;;;;18.50;1.00;;;;;;10248018;28;84918;-48
2022/06/12 01:25:07;;;;;;;;;;;18.40;99.90;;;;;;10244438;28;85001;-56
2022/06/12 01:30:14;;;;;;;;;;;18.30;99.90;;;;;;10204757;28;86450;-49
2022/06/12 01:35:14;;;;;;;;;;;18.30;1.00;;;;;;10205683;28;84957;-50
2022/06/12 01:40:36;;;;;;;;;;;18.20;1.00;;;;;;10206161;28;84439;-49
2022/06/12 01:45:46;;;;;;;;;;;18.10;1.00;;;;;;10208372;28;84901;-48
2022/06/12 01:50:58;;;;;;;;;;;18.10;1.00;;;;;;10212333;28;84163;-48
2022/06/12 01:56:03;;;;;;;;;;;18.20;1.00;;;;;;10213630;28;85395;-51
2022/06/12 02:01:13;;;;;;;;;;;18.20;1.00;;;;;;10212731;28;84044;-46
2022/06/12 02:06:20;;;;;;;;;;;18.20;1.00;;;;;;10193877;28;85703;-50
2022/06/12 02:16:47;;;;;;;;;;;18.20;1.00;;;;;;10249706;28;84182;-50
2022/06/12 02:22:03;;;;;;;;;;;17.90;1.00;;;;;;10252105;28;85161;-52
2022/06/12 02:27:06;;;;;;;;;;;17.70;1.00;;;;;;10250924;28;84870;-48
2022/06/12 02:32:10;;;;;;;;;;;17.60;1.00;;;;;;10249415;28;84779;-46
2022/06/12 02:37:17;;;;;;;;;;;17.40;1.00;;;;;;10250949;28;84159;-51
2022/06/12 02:42:19;;;;;;;;;;;17.30;1.00;;;;;;10249331;28;86513;-50
2022/06/12 02:47:25;;;;;;;;;;;17.30;1.00;;;;;;10250150;28;84187;-48
2022/06/12 02:52:48;;;;;;;;;;;17.20;99.90;;;;;;10217039;28;84934;-50
2022/06/12 02:58:07;;;;;;;;;;;17.10;99.90;;;;;;10208066;28;84491;-51
2022/06/12 03:03:08;;;;;;;;;;;16.90;99.90;;;;;;10213622;28;84582;-48
2022/06/12 03:08:15;;;;;;;;;;;16.80;99.90;;;;;;10240125;28;86024;-49
2022/06/12 03:13:16;;;;;;;;;;;16.70;99.90;;;;;;10238629;28;84259;-48
2022/06/12 03:18:32;;;;;;;;;;;16.70;99.90;;;;;;10228412;28;84387;-49
2022/06/12 03:23:39;;;;;;;;;;;16.70;99.90;;;;;;10250046;28;84842;-50
2022/06/12 03:28:51;;;;;;;;;;;16.70;99.90;;;;;;10196540;28;84161;-47
2022/06/12 03:34:03;;;;;;;;;;;16.60;99.90;;;;;;10208787;28;84109;-51
2022/06/12 03:39:11;;;;;;;;;;;16.50;99.90;;;;;;10209435;28;84010;-53
2022/06/12 03:44:23;;;;;;;;;;;16.30;1.00;;;;;;10223850;28;85043;-48
2022/06/12 03:49:42;;;;;;;;;;;16.30;1.00;;;;;;10248311;28;84985;-50
2022/06/12 03:54:54;;;;;;;;;;;16.40;1.00;;;;;;10248335;28;85077;-45
2022/06/12 04:00:04;;;;;;;;;;;16.30;1.00;;;;;;10246357;28;84100;-50
2022/06/12 04:05:24;;;;;;;;;;;16.30;1.00;;;;;;10246228;28;84598;-51
2022/06/12 04:10:29;;;;;;;;;;;16.30;1.00;;;;;;10247560;28;84296;-48
2022/06/12 04:15:32;;;;;;;;;;;16.30;1.00;;;;;;10244060;28;84998;-46
2022/06/12 04:20:45;;;;;;;;;;;16.40;1.00;;;;;;10237376;28;84156;-46
2022/06/12 04:25:46;;;;;;;;;;;16.50;1.00;;;;;;10230240;28;84158;-50
2022/06/12 04:30:46;;;;;;;;;;;16.60;1.00;;;;;;10233727;28;84081;-48
2022/06/12 04:35:52;;;;;;;;;;;16.70;1.00;;;;;;10244555;28;86039;-47
2022/06/12 04:40:52;;;;;;;;;;;16.70;99.90;;;;;;10244363;28;84940;-51
2022/06/12 04:45:53;;;;;;;;;;;16.80;99.90;;;;;;10219530;28;84827;-48
2022/06/12 04:50:54;;;;;;;;;;;16.80;99.90;;;;;;10198262;28;84198;-51
2022/06/12 04:55:54;;;;;;;;;;;16.90;99.90;;;;;;10218281;28;84805;-49
2022/06/12 05:00:55;;;;;;;;;;;17.10;99.90;;;;;;10212013;28;85212;-48
2022/06/12 05:05:56;;;;;;;;;;;17.10;99.90;;;;;;10204909;28;87939;-51
2022/06/12 05:10:56;;;;;;;;;;;17.10;1.00;;;;;;10205255;28;85469;-48
2022/06/12 05:15:58;;;;;;;;;;;17.20;1.00;;;;;;10205152;28;84174;-48
2022/06/12 05:20:59;;;;;;;;;;;17.30;99.90;;;;;;10204838;28;84865;-48
2022/06/12 05:26:00;;;;;;;;;;;17.40;99.90;;;;;;10206364;28;84980;-48
2022/06/12 05:31:01;;;;;;;;;;;17.40;74.10;;;;;;10214550;28;84241;-52
2022/06/12 05:36:01;;;;;;;;;;;17.50;99.90;;;;;;10210944;28;84136;-48
2022/06/12 05:41:02;;;;;;;;;;;17.80;1.00;;;;;;10206204;28;84787;-49
2022/06/12 05:46:03;;;;;;;;;;;18.00;99.90;;;;;;10210685;28;84194;-52
2022/06/12 05:51:04;;;;;;;;;;;18.00;1.00;;;;;;10200653;28;87150;-50
2022/06/12 05:56:09;;;;;;;;;;;18.10;1.00;;;;;;10202485;28;84706;-50
2022/06/12 06:01:10;;;;;;;;;;;18.40;99.90;;;;;;10185935;28;84979;-48
2022/06/12 06:06:14;;;;;;;;;;;18.60;27.20;;;;;;10186150;28;84151;-48
2022/06/12 06:11:15;;;;;;;;;;;18.80;1.00;;;;;;10203085;28;84847;-49
2022/06/12 06:16:15;;;;;;;;;;;19.00;1.00;;;;;;10260162;22;84863;-54
2022/06/12 06:21:16;;;;;;;;;;;19.20;99.90;;;;;;10295502;28;84936;-54
2022/06/12 06:26:17;;;;;;;;;;;19.30;40.00;;;;;;10283980;28;84926;-53
2022/06/12 06:31:18;;;;;;;;;;;19.30;1.00;;;;;;10294824;28;84874;-57
2022/06/12 06:36:19;;;;;;;;;;;19.30;84.90;;;;;;10283487;28;84887;-53
2022/06/12 06:41:20;;;;;;;;;;;19.50;93.00;;;;;;10323943;28;84076;-57
2022/06/12 06:46:21;;;;;;;;;;;19.60;99.90;;;;;;10302056;28;84785;-57
2022/06/12 06:51:22;;;;;;;;;;;19.70;1.00;;;;;;10289244;28;84278;-57
2022/06/12 06:56:23;;;;;;;;;;;19.90;1.00;;;;;;10288768;28;84901;-54
2022/06/12 07:01:23;;;;;;;;;;;19.90;1.00;;;;;;10295962;28;84353;-55
2022/06/12 07:06:24;;;;;;;;;;;20.00;1.00;;;;;;10302341;28;85078;-57
2022/06/12 07:11:25;;;;;;;;;;;20.30;1.00;;;;;;10315109;28;84904;-57
2022/06/12 07:16:27;;;;;;;;;;;20.40;1.00;;;;;;10321687;28;84888;-59
2022/06/12 07:21:28;;;;;;;;;;;20.70;1.00;;;;;;10309911;28;84817;-59
2022/06/12 07:26:30;;;;;;;;;;;20.90;1.00;;;;;;10295388;28;85031;-58
2022/06/12 07:31:31;;;;;;;;;;;21.00;1.00;;;;;;10298672;28;84896;-59
2022/06/12 07:36:31;;;;;;;;;;;21.40;1.00;;;;;;10275954;28;86891;-57
2022/06/12 07:41:32;;;;;;;;;;;22.00;99.90;;;;;;10272991;28;84250;-57
2022/06/12 07:46:33;;;;;;;;;;;22.50;1.00;;;;;;10275349;28;84146;-59
2022/06/12 07:51:33;;;;;;;;;;;23.30;99.90;;;;;;10262364;28;84726;-59
2022/06/12 07:56:34;;;;;;;;;;;23.90;1.00;;;;;;10264809;28;84411;-60
2022/06/12 08:01:35;;;;;;;;;;;24.20;1.00;;;;;;10277169;28;84911;-61
2022/06/12 08:06:35;;;;;;;;;;;24.20;1.00;;;;;;10278497;28;84708;-60
2022/06/12 08:11:36;;;;;;;;;;;24.50;1.00;;;;;;10263688;28;84363;-59
2022/06/12 08:16:37;;;;;;;;;;;24.70;99.90;;;;;;10265326;28;84686;-55
2022/06/12 08:21:38;;;;;;;;;;;25.10;99.90;;;;;;10276148;28;85414;-59
2022/06/12 08:26:39;;;;;;;;;;;25.40;99.90;;;;;;10277739;28;84056;-56
2022/06/12 08:31:41;;;;;;;;;;;25.60;1.00;;;;;;10275534;28;84966;-55
2022/06/12 08:36:42;;;;;;;;;;;25.60;1.00;;;;;;10278792;28;84418;-59
2022/06/12 08:41:47;;;;;;;;;;;26.20;1.00;;;;;;10280085;28;85904;-55
2022/06/12 08:46:49;;;;;;;;;;;26.00;1.00;;;;;;10285755;28;84100;-55
2022/06/12 08:52:09;;;;;;;;;;;26.40;1.00;;;;;;10286820;28;84048;-57
2022/06/12 08:57:16;;;;;;;;;;;26.70;1.00;;;;;;10284493;28;84106;-59
2022/06/12 09:02:28;;;;;;;;;;;26.20;1.00;;;;;;10265050;28;84800;-58
2022/06/12 09:07:34;;;;;;;;;;;26.30;1.00;;;;;;10275926;28;84826;-58
2022/06/12 09:12:41;;;;;;;;;;;27.00;1.00;;;;;;10270022;28;85858;-59
2022/06/12 09:17:43;;;;;;;;;;;27.20;1.00;;;;;;10272766;28;84289;-57
2022/06/12 09:22:43;;;;;;;;;;;28.10;1.00;;;;;;10261987;28;84078;-57
2022/06/12 09:27:44;;;;;;;;;;;28.00;1.00;;;;;;10265349;28;84782;-59
2022/06/12 09:32:44;;;;;;;;;;;28.50;1.00;;;;;;10265134;28;84207;-53
2022/06/12 09:38:19;;;;;;;;;;;29.50;1.00;;;;;;10274596;28;84759;-52
2022/06/12 09:43:19;;;;;;;;;;;29.50;1.00;;;;;;10266157;28;84953;-57
2022/06/12 09:48:28;;;;;;;;;;;29.80;1.00;;;;;;10264466;28;84147;-58
2022/06/12 09:53:39;;;;;;;;;;;30.30;1.00;;;;;;10284858;28;85001;-55
2022/06/12 09:58:41;;;;;;;;;;;29.20;1.00;;;;;;10295806;28;84292;-58
2022/06/12 10:03:47;;;;;;;;;;;28.30;1.00;;;;;;10289534;28;85009;-58
2022/06/12 10:08:51;;;;;;;;;;;28.50;1.00;;;;;;10302405;28;84035;-62
2022/06/12 10:13:57;;;;;;;;;;;28.70;1.00;;;;;;10282033;28;84371;-57
2022/06/12 10:19:15;;;;;;;;;;;28.40;1.00;;;;;;10283520;28;84212;-61
2022/06/12 10:24:16;;;;;;;;;;;28.70;1.00;;;;;;10294987;28;84455;-58
2022/06/12 10:29:17;;;;;;;;;;;28.80;1.00;;;;;;10285457;28;85107;-58
2022/06/12 10:34:21;;;;;;;;;;;28.70;1.00;;;;;;10299107;28;85007;-58
2022/06/12 10:39:24;;;;;;;;;;;29.90;1.00;;;;;;10275895;28;84799;-60
2022/06/12 10:44:26;;;;;;;;;;;30.40;1.00;;;;;;10252110;28;84823;-60
2022/06/12 10:49:27;;;;;;;;;;;30.30;1.00;;;;;;10250897;28;84144;-55
2022/06/12 10:54:28;;;;;;;;;;;29.70;1.00;;;;;;10250427;28;84904;-55
2022/06/12 10:59:28;;;;;;;;;;;29.90;1.00;;;;;;10249735;28;84687;-55
2022/06/12 11:04:29;;;;;;;;;;;31.30;1.00;;;;;;10278359;28;84363;-53
2022/06/12 11:09:35;;;;;;;;;;;31.30;1.00;;;;;;10288593;28;87136;-60
2022/06/12 11:14:47;;;;;;;;;;;31.70;1.00;;;;;;10268917;28;84793;-58
2022/06/12 11:19:48;;;;;;;;;;;31.60;1.00;;;;;;10287794;28;84092;-60
2022/06/12 11:25:04;;;;;;;;;;;30.90;1.00;;;;;;10280765;28;85360;-57
2022/06/12 11:30:04;;;;;;;;;;;30.30;1.00;;;;;;10263814;28;84843;-61
2022/06/12 11:35:24;;;;;;;;;;;31.00;1.00;;;;;;10247927;28;84117;-56
2022/06/12 11:40:31;;;;;;;;;;;30.50;1.00;;;;;;10282655;28;84972;-54
2022/06/12 11:45:42;;;;;;;;;;;30.30;1.00;;;;;;10285039;28;84110;-58
2022/06/12 11:50:58;;;;;;;;;;;31.00;1.00;;;;;;10284067;28;86357;-54
2022/06/12 11:55:59;;;;;;;;;;;30.50;1.00;;;;;;10278109;28;84899;-57
2022/06/12 12:01:10;;;;;;;;;;;29.50;1.00;;;;;;10283133;28;85876;-54
2022/06/12 12:06:26;;;;;;;;;;;28.90;1.00;;;;;;10285234;28;84939;-57
2022/06/12 12:11:41;;;;;;;;;;;29.20;1.00;;;;;;10284417;28;84191;-57
2022/06/12 12:16:44;;;;;;;;;;;29.60;1.00;;;;;;10285073;22;84461;-50
2022/06/12 12:21:44;;;;;;;;;;;30.10;1.00;;;;;;10258958;28;85091;-52
2022/06/12 12:26:45;;;;;;;;;;;30.80;1.00;;;;;;10263196;28;84275;-52
2022/06/12 12:31:46;;;;;;;;;;;31.60;1.00;;;;;;10244510;28;84974;-62
2022/06/12 12:42:18;;;;;;;;;;;29.30;1.00;;;;;;10267810;28;86910;-55
2022/06/12 12:47:28;;;;;;;;;;;29.10;1.00;;;;;;10259709;28;84685;-58
2022/06/12 12:52:38;;;;;;;;;;;28.00;1.00;;;;;;10267569;28;84147;-61
2022/06/12 12:57:43;;;;;;;;;;;28.30;1.00;;;;;;10251714;28;84322;-56
2022/06/12 13:02:49;;;;;;;;;;;29.90;1.00;;;;;;10246835;28;84286;-55
2022/06/12 13:08:09;;;;;;;;;;;31.10;1.00;;;;;;10246923;28;85983;-54
2022/06/12 13:13:25;;;;;;;;;;;31.80;1.00;;;;;;10217579;28;85390;-55
2022/06/12 13:18:38;;;;;;;;;;;31.70;1.00;;;;;;10234555;28;86087;-57
2022/06/12 13:23:45;;;;;;;;;;;31.60;1.00;;;;;;10245877;28;85944;-50
2022/06/12 13:28:56;;;;;;;;;;;31.70;1.00;;;;;;10266681;28;84990;-64
2022/06/12 13:33:58;;;;;;;;;;;31.80;1.00;;;;;;10258041;28;84770;-56
2022/06/12 13:39:00;;;;;;;;;;;31.50;1.00;;;;;;10247652;28;84546;-48
2022/06/12 13:44:33;;;;;;;;;;;30.80;1.00;;;;;;10255700;28;87559;-54
2022/06/12 13:49:41;;;;;;;;;;;29.70;1.00;;;;;;10226813;28;85005;-50
2022/06/12 13:54:43;;;;;;;;;;;28.90;1.00;;;;;;10258053;28;84834;-59
2022/06/12 13:59:45;;;;;;;;;;;29.20;1.00;;;;;;10256615;28;84531;-49
2022/06/12 14:04:59;;;;;;;;;;;28.20;1.00;;;;;;10256202;28;84310;-52
2022/06/12 14:10:12;;;;;;;;;;;27.30;1.00;;;;;;10255550;28;84944;-52
2022/06/12 14:15:31;;;;;;;;;;;27.40;1.00;;;;;;10269337;28;84824;-48
2022/06/12 14:20:33;;;;;;;;;;;26.80;1.00;;;;;;10290757;28;85535;-49
2022/06/12 14:25:36;;;;;;;;;;;26.50;1.00;;;;;;10277188;28;84874;-51
2022/06/12 14:30:38;;;;;;;;;;;26.40;1.00;;;;;;10278287;28;84215;-58
2022/06/12 14:35:43;;;;;;;;;;;26.30;1.00;;;;;;10299227;28;85585;-48
2022/06/12 14:40:43;;;;;;;;;;;26.00;1.00;;;;;;10256368;28;84864;-52
2022/06/12 14:45:46;;;;;;;;;;;25.50;1.00;;;;;;10255740;28;84746;-55
2022/06/12 14:50:47;;;;;;;;;;;25.70;1.00;;;;;;10260994;28;84971;-48
2022/06/12 14:55:48;;;;;;;;;;;25.50;1.00;;;;;;10253453;28;84646;-50
2022/06/12 15:00:48;;;;;;;;;;;25.40;1.00;;;;;;10244128;28;85294;-50
2022/06/12 15:05:49;;;;;;;;;;;25.40;1.00;;;;;;10231003;28;85983;-52
2022/06/12 15:10:50;;;;;;;;;;;25.20;1.00;;;;;;10231262;28;86885;-53
2022/06/12 15:15:51;;;;;;;;;;;25.00;1.00;;;;;;10231518;28;84274;-57
2022/06/12 15:20:52;;;;;;;;;;;25.30;1.00;;;;;;10260618;28;85230;-55
2022/06/12 15:31:15;;;;;;;;;;;25.20;1.00;;;;;;10251842;28;86062;-60
2022/06/12 15:36:16;;;;;;;;;;;24.90;1.00;;;;;;10288146;28;84135;-59
2022/06/12 15:41:18;;;;;;;;;;;24.70;1.00;;;;;;10274479;28;86108;-60
2022/06/12 15:46:21;;;;;;;;;;;24.80;1.00;;;;;;10286794;28;85367;-61
2022/06/12 15:51:22;;;;;;;;;;;24.90;1.00;;;;;;10282784;28;84249;-58
2022/06/12 15:56:23;;;;;;;;;;;24.50;1.00;;;;;;10259256;28;84218;-60
2022/06/12 16:01:29;;;;;;;;;;;24.30;1.00;;;;;;10252436;28;85048;-58
2022/06/12 16:06:31;;;;;;;;;;;24.30;1.00;;;;;;10276962;28;84743;-63
2022/06/12 16:11:32;;;;;;;;;;;24.00;1.00;;;;;;10256904;28;84229;-60
2022/06/12 16:16:32;;;;;;;;;;;24.00;1.00;;;;;;10246930;28;84190;-60
2022/06/12 16:21:33;;;;;;;;;;;23.80;1.00;;;;;;10247297;28;84718;-63
2022/06/12 16:26:35;;;;;;;;;;;23.80;1.00;;;;;;10267105;28;84726;-63
2022/06/12 16:31:35;;;;;;;;;;;23.70;1.00;;;;;;10262313;28;87772;-61
2022/06/12 16:36:37;;;;;;;;;;;23.50;1.00;;;;;;10289808;28;85001;-60
2022/06/12 16:41:48;;;;;;;;;;;23.40;1.00;;;;;;10284573;28;86796;-60
2022/06/12 16:46:50;;;;;;;;;;;23.30;1.00;;;;;;10249782;28;85081;-60
2022/06/12 16:51:56;;;;;;;;;;;23.20;1.00;;;;;;10255733;28;84271;-58
2022/06/12 16:56:57;;;;;;;;;;;23.10;1.00;;;;;;10263085;28;84111;-61
2022/06/12 17:01:57;;;;;;;;;;;23.20;1.00;;;;;;10263394;28;86338;-60
2022/06/12 17:06:58;;;;;;;;;;;23.10;1.00;;;;;;10274449;28;85860;-59
2022/06/12 17:11:58;;;;;;;;;;;23.10;1.00;;;;;;10249379;28;84888;-59
2022/06/12 17:17:00;;;;;;;;;;;22.80;1.00;;;;;;10246843;28;85719;-60
2022/06/12 17:22:01;;;;;;;;;;;22.60;1.00;;;;;;10241659;28;85021;-48
2022/06/12 17:27:02;;;;;;;;;;;22.30;1.00;;;;;;10247141;28;84296;-52
2022/06/12 17:32:03;;;;;;;;;;;22.30;1.00;;;;;;10239037;28;85007;-47
2022/06/12 17:37:03;;;;;;;;;;;22.30;1.00;;;;;;10255193;28;84971;-49
2022/06/12 17:42:05;;;;;;;;;;;22.30;1.00;;;;;;10255374;28;85312;-47
2022/06/12 17:47:05;;;;;;;;;;;22.30;1.00;;;;;;10243277;28;85002;-51
2022/06/12 17:52:06;;;;;;;;;;;22.10;1.00;;;;;;10243470;28;85020;-48
2022/06/12 17:57:07;;;;;;;;;;;21.90;1.00;;;;;;10246239;28;84271;-54
2022/06/12 18:02:07;;;;;;;;;;;22.00;1.00;;;;;;10240996;28;84239;-54
2022/06/12 18:07:08;;;;;;;;;;;21.80;1.00;;;;;;10247973;28;85653;-51
2022/06/12 18:12:09;;;;;;;;;;;21.60;1.00;;;;;;10263869;28;85122;-49
2022/06/12 18:22:29;;;;;;;;;;;21.50;1.00;;;;;;10290621;28;87323;-60
2022/06/12 18:27:32;;;;;;;;;;;21.50;1.00;;;;;;10296274;28;84771;-62
2022/06/12 18:32:33;;;;;;;;;;;21.20;1.00;;;;;;10303730;28;85362;-60
2022/06/12 18:37:34;;;;;;;;;;;21.10;1.00;;;;;;10297666;28;84711;-59
2022/06/12 18:42:35;;;;;;;;;;;21.10;1.00;;;;;;10311712;28;85106;-61
2022/06/12 18:47:37;;;;;;;;;;;21.20;1.00;;;;;;10315279;28;84755;-63
2022/06/12 18:52:38;;;;;;;;;;;21.10;1.00;;;;;;10311769;28;84838;-61
2022/06/12 18:57:39;;;;;;;;;;;21.00;1.00;;;;;;10300875;28;84337;-63
2022/06/12 19:02:39;;;;;;;;;;;21.00;1.00;;;;;;10308737;28;85305;-62
2022/06/12 19:07:40;;;;;;;;;;;21.00;1.00;;;;;;10305567;28;84193;-60
2022/06/12 19:12:41;;;;;;;;;;;20.80;1.00;;;;;;10318286;28;84250;-62
2022/06/12 19:17:41;;;;;;;;;;;20.80;1.00;;;;;;10308477;28;84792;-62
2022/06/12 19:22:42;;;;;;;;;;;20.70;1.00;;;;;;10312139;28;84165;-62
2022/06/12 19:27:43;;;;;;;;;;;20.60;1.00;;;;;;10288393;28;85329;-63
2022/06/12 19:32:43;;;;;;;;;;;20.40;1.00;;;;;;10285294;28;84879;-64
2022/06/12 19:37:46;;;;;;;;;;;20.40;99.90;;;;;;10302837;28;84723;-64
2022/06/12 19:42:54;;;;;;;;;;;20.20;1.00;;;;;;10297712;28;84202;-64
2022/06/12 19:47:54;;;;;;;;;;;20.00;1.00;;;;;;10295818;28;84349;-62
2022/06/12 19:52:55;;;;;;;;;;;19.80;1.00;;;;;;10303055;28;85190;-63
2022/06/12 19:57:55;;;;;;;;;;;19.70;1.00;;;;;;10292313;28;85080;-61
2022/06/12 20:02:56;;;;;;;;;;;19.60;99.90;;;;;;10310176;28;84811;-62
2022/06/12 20:07:57;;;;;;;;;;;19.50;99.90;;;;;;10278182;28;84870;-63
2022/06/12 20:12:58;;;;;;;;;;;19.40;1.00;;;;;;10285001;28;84255;-62
2022/06/12 20:23:20;;;;;;;;;;;19.20;99.90;;;;;;10296968;28;85837;-58
2022/06/12 20:28:21;;;;;;;;;;;19.00;1.00;;;;;;10291308;28;86811;-61
2022/06/12 20:33:23;;;;;;;;;;;18.90;92.90;;;;;;10290050;28;86597;-61
2022/06/12 20:38:24;;;;;;;;;;;18.80;99.90;;;;;;10290143;28;84968;-61
2022/06/12 20:43:25;;;;;;;;;;;18.70;1.00;;;;;;10306045;28;85590;-60
2022/06/12 20:48:26;;;;;;;;;;;18.50;1.00;;;;;;10307127;28;84196;-59
2022/06/12 20:53:27;;;;;;;;;;;18.40;1.00;;;;;;10287320;28;86536;-60
2022/06/12 20:58:28;;;;;;;;;;;18.30;1.00;;;;;;10307802;28;84627;-61
2022/06/12 21:03:28;;;;;;;;;;;18.20;1.00;;;;;;10299083;28;85125;-62
2022/06/12 21:08:29;;;;;;;;;;;18.20;1.00;;;;;;10297897;28;84124;-61
2022/06/12 21:13:29;;;;;;;;;;;18.00;99.90;;;;;;10307410;28;85021;-61
2022/06/12 21:18:30;;;;;;;;;;;17.90;99.90;;;;;;10291394;28;84684;-60
2022/06/12 21:23:31;;;;;;;;;;;17.90;1.00;;;;;;10263692;28;84908;-59
2022/06/12 21:28:31;;;;;;;;;;;17.80;1.00;;;;;;10283239;28;85397;-58
2022/06/12 21:33:32;;;;;;;;;;;17.70;5.50;;;;;;10297356;28;84148;-59
2022/06/12 21:38:33;;;;;;;;;;;17.60;99.90;;;;;;10292023;28;84287;-61
2022/06/12 21:43:34;;;;;;;;;;;17.60;99.90;;;;;;10284000;28;84345;-60
2022/06/12 21:48:34;;;;;;;;;;;17.40;99.90;;;;;;10282807;28;84021;-60
2022/06/12 21:58:54;;;;;;;;;;;17.20;1.00;;;;;;10280148;28;84340;-59
2022/06/12 22:03:55;;;;;;;;;;;17.20;1.00;;;;;;10294064;28;84005;-59
2022/06/12 22:08:56;;;;;;;;;;;17.10;1.00;;;;;;10305589;28;86043;-59
2022/06/12 22:13:57;;;;;;;;;;;17.10;1.00;;;;;;10307239;28;85730;-58
2022/06/12 22:18:57;;;;;;;;;;;16.90;1.00;;;;;;10291883;28;84789;-59
2022/06/12 22:23:58;;;;;;;;;;;16.80;1.00;;;;;;10292370;28;85339;-59
2022/06/12 22:28:59;;;;;;;;;;;16.70;1.00;;;;;;10292364;28;84318;-60
2022/06/12 22:33:59;;;;;;;;;;;16.70;1.00;;;;;;10292076;28;84148;-58
2022/06/12 22:39:00;;;;;;;;;;;16.60;1.00;;;;;;10292732;28;86480;-60
2022/06/12 22:44:01;;;;;;;;;;;16.60;1.00;;;;;;10292461;28;85190;-61
2022/06/12 22:49:02;;;;;;;;;;;16.50;67.80;;;;;;10292245;28;84580;-60
2022/06/12 22:54:02;;;;;;;;;;;16.40;91.40;;;;;;10255395;28;84303;-59
2022/06/12 22:59:03;;;;;;;;;;;16.40;99.90;;;;;;10249435;28;86681;-59
2022/06/12 23:04:04;;;;;;;;;;;16.40;99.90;;;;;;10251655;28;84444;-60
2022/06/12 23:09:04;;;;;;;;;;;16.40;99.90;;;;;;10265718;28;84170;-60
2022/06/12 23:14:05;;;;;;;;;;;16.30;99.90;;;;;;10250720;28;84964;-59
2022/06/12 23:19:05;;;;;;;;;;;16.30;99.90;;;;;;10251726;28;84952;-59
2022/06/12 23:24:06;;;;;;;;;;;16.10;99.90;;;;;;10269425;28;86122;-59
2022/06/12 23:29:07;;;;;;;;;;;16.10;99.90;;;;;;10321205;28;85379;-60
2022/06/12 23:34:09;;;;;;;;;;;16.10;99.90;;;;;;10321181;28;85584;-60
2022/06/12 23:39:10;;;;;;;;;;;16.00;99.90;;;;;;10305645;28;85266;-60
2022/06/12 23:44:10;;;;;;;;;;;16.00;99.90;;;;;;10282585;28;85342;-62
2022/06/12 23:49:11;;;;;;;;;;;15.90;99.90;;;;;;10295997;28;84869;-57
2022/06/12 23:54:12;;;;;;;;;;;15.90;99.90;;;;;;10288479;28;84230;-59
2022/06/12 23:59:12;;;;;;;;;;;15.90;99.90;;;;;;10278321;28;84971;-59
